This is the latest recevied weather packets stored in our database for station/object Krozingen. If no packets are shown the sender has not sent any weather packets the latest 10 day(s).
| Time | Temp. | Humidity | Pressure | Rain* | Wind** | Luminosity | Snow |
|---|---|---|---|---|---|---|---|
| 1777327329 | 11.67° C | 72% | 1017 hPa | 0 mm | - | - | - |
| 1777325530 | 12.78° C | 69% | 1017.1 hPa | 0 mm | - | - | - |
| 1777323730 | 13.33° C | 66% | 1017.4 hPa | 0 mm | - | - | - |
| 1777321930 | 14.44° C | 57% | 1017.5 hPa | 0 mm | - | - | - |
| 1777320129 | 15.56° C | 57% | 1017.5 hPa | 0 mm | - | - | - |
| 1777318340 | 17.22° C | 48% | 1017.6 hPa | 0 mm | - | - | - |
| 1777316531 | 17.78° C | 47% | 1017.6 hPa | 0 mm | - | - | - |
| 1777314729 | 18.89° C | 47% | 1017.3 hPa | 0 mm | - | - | - |
| 1777312929 | 19.44° C | 45% | 1017.3 hPa | 0 mm | - | - | - |
| 1777311131 | 20° C | 44% | 1017.2 hPa | 0 mm | - | - | - |
| 1777309331 | 20.56° C | 41% | 1017.2 hPa | 0 mm | - | - | - |
| 1777307530 | 21.67° C | 40% | 1017.4 hPa | 0 mm | - | - | - |
| 1777305731 | 21.67° C | 36% | 1017.7 hPa | 0 mm | - | - | - |
| 1777303931 | 22.22° C | 36% | 1017.9 hPa | 0 mm | - | - | - |
| 1777302132 | 21.67° C | 34% | 1018.2 hPa | 0 mm | - | - | - |
| 1777300330 | 22.22° C | 34% | 1018.5 hPa | 0 mm | - | - | - |
| 1777298531 | 21.67° C | 37% | 1018.8 hPa | 0 mm | - | - | - |
| 1777296731 | 21.67° C | 38% | 1019.1 hPa | 0 mm | - | - | - |
| 1777294933 | 21.67° C | 38% | 1019.4 hPa | 0 mm | - | - | - |
| 1777293131 | 21.11° C | 42% | 1019.7 hPa | 0 mm | - | - | - |
| 1777291330 | 21.11° C | 44% | 1020.1 hPa | 0 mm | - | - | - |
| 1777289531 | 20.56° C | 45% | 1020.3 hPa | 0 mm | - | - | - |
| 1777287731 | 20° C | 45% | 1020.5 hPa | 0 mm | - | - | - |
| 1777285930 | 18.89° C | 47% | 1020.9 hPa | 0 mm | - | - | - |
| 1777284131 | 17.22° C | 49% | 1021.2 hPa | 0 mm | - | - | - |
* Rain since midnight (hover to see other rain measurements)
** Current wind speed in m/s (hover to see current wind gust speed)